sensor_id;sensor_type;location;lat;lon;timestamp;temperature;humidity
51035;DHT22;37062;52.546;13.230;2022-09-09T00:00:47;16.90;99.90
51035;DHT22;37062;52.546;13.230;2022-09-09T00:03:19;16.80;99.90
51035;DHT22;37062;52.546;13.230;2022-09-09T00:05:57;16.80;99.90
51035;DHT22;37062;52.546;13.230;2022-09-09T00:08:40;16.80;99.90
51035;DHT22;37062;52.546;13.230;2022-09-09T00:11:12;16.80;99.90
51035;DHT22;37062;52.546;13.230;2022-09-09T00:13:48;16.70;99.90
51035;DHT22;37062;52.546;13.230;2022-09-09T00:16:22;16.70;99.90
51035;DHT22;37062;52.546;13.230;2022-09-09T00:18:59;16.70;99.90
51035;DHT22;37062;52.546;13.230;2022-09-09T00:21:33;16.60;99.90
51035;DHT22;37062;52.546;13.230;2022-09-09T00:24:08;16.60;99.90
51035;DHT22;37062;52.546;13.230;2022-09-09T00:26:42;16.60;99.90
51035;DHT22;37062;52.546;13.230;2022-09-09T00:29:20;16.60;99.90
51035;DHT22;37062;52.546;13.230;2022-09-09T00:31:49;16.50;99.90
51035;DHT22;37062;52.546;13.230;2022-09-09T00:34:20;16.50;99.90
51035;DHT22;37062;52.546;13.230;2022-09-09T00:36:50;16.50;99.90
51035;DHT22;37062;52.546;13.230;2022-09-09T00:39:25;16.50;99.90
51035;DHT22;37062;52.546;13.230;2022-09-09T00:42:05;16.50;99.90
51035;DHT22;37062;52.546;13.230;2022-09-09T00:44:46;16.50;99.90
51035;DHT22;37062;52.546;13.230;2022-09-09T00:47:33;16.50;99.90
51035;DHT22;37062;52.546;13.230;2022-09-09T00:50:28;16.50;99.90
51035;DHT22;37062;52.546;13.230;2022-09-09T00:53:05;16.40;99.90
51035;DHT22;37062;52.546;13.230;2022-09-09T00:55:45;16.40;99.90
51035;DHT22;37062;52.546;13.230;2022-09-09T00:58:16;16.30;99.90
51035;DHT22;37062;52.546;13.230;2022-09-09T01:00:45;16.30;99.90
51035;DHT22;37062;52.546;13.230;2022-09-09T01:03:22;16.30;99.90
51035;DHT22;37062;52.546;13.230;2022-09-09T01:06:00;16.30;99.90
51035;DHT22;37062;52.546;13.230;2022-09-09T01:11:41;16.20;99.90
51035;DHT22;37062;52.546;13.230;2022-09-09T01:14:22;16.30;99.90
51035;DHT22;37062;52.546;13.230;2022-09-09T01:16:54;16.20;99.90
51035;DHT22;37062;52.546;13.230;2022-09-09T01:19:31;16.20;99.90
51035;DHT22;37062;52.546;13.230;2022-09-09T01:22:09;16.20;99.90
51035;DHT22;37062;52.546;13.230;2022-09-09T01:24:44;16.20;99.90
51035;DHT22;37062;52.546;13.230;2022-09-09T01:27:21;16.20;99.90
51035;DHT22;37062;52.546;13.230;2022-09-09T01:29:51;16.20;99.90
51035;DHT22;37062;52.546;13.230;2022-09-09T01:32:41;16.20;99.90
51035;DHT22;37062;52.546;13.230;2022-09-09T01:35:15;16.10;99.90
51035;DHT22;37062;52.546;13.230;2022-09-09T01:37:46;16.10;99.90
51035;DHT22;37062;52.546;13.230;2022-09-09T01:40:14;16.10;99.90
51035;DHT22;37062;52.546;13.230;2022-09-09T01:42:43;16.10;99.90
51035;DHT22;37062;52.546;13.230;2022-09-09T01:45:11;16.10;99.90
51035;DHT22;37062;52.546;13.230;2022-09-09T01:47:39;16.10;99.90
51035;DHT22;37062;52.546;13.230;2022-09-09T01:50:16;16.10;99.90
51035;DHT22;37062;52.546;13.230;2022-09-09T01:52:48;16.10;99.90
51035;DHT22;37062;52.546;13.230;2022-09-09T01:55:26;16.10;99.90
51035;DHT22;37062;52.546;13.230;2022-09-09T01:58:16;16.10;99.90
51035;DHT22;37062;52.546;13.230;2022-09-09T02:01:06;16.10;99.90
51035;DHT22;37062;52.546;13.230;2022-09-09T02:03:37;16.10;99.90
51035;DHT22;37062;52.546;13.230;2022-09-09T02:06:25;16.00;99.90
51035;DHT22;37062;52.546;13.230;2022-09-09T02:09:02;16.00;99.90
51035;DHT22;37062;52.546;13.230;2022-09-09T02:11:33;16.00;99.90
51035;DHT22;37062;52.546;13.230;2022-09-09T02:14:16;16.00;99.90
51035;DHT22;37062;52.546;13.230;2022-09-09T02:16:52;16.00;99.90
51035;DHT22;37062;52.546;13.230;2022-09-09T02:19:26;16.00;99.90
51035;DHT22;37062;52.546;13.230;2022-09-09T02:22:07;16.00;99.90
51035;DHT22;37062;52.546;13.230;2022-09-09T02:24:36;16.00;99.90
51035;DHT22;37062;52.546;13.230;2022-09-09T02:27:16;16.00;99.90
51035;DHT22;37062;52.546;13.230;2022-09-09T02:29:46;16.00;99.90
51035;DHT22;37062;52.546;13.230;2022-09-09T02:32:21;15.90;99.90
51035;DHT22;37062;52.546;13.230;2022-09-09T02:34:57;15.90;99.90
51035;DHT22;37062;52.546;13.230;2022-09-09T02:37:29;15.90;99.90
51035;DHT22;37062;52.546;13.230;2022-09-09T02:39:59;15.90;99.90
51035;DHT22;37062;52.546;13.230;2022-09-09T02:42:26;15.80;99.90
51035;DHT22;37062;52.546;13.230;2022-09-09T02:45:03;15.90;99.90
51035;DHT22;37062;52.546;13.230;2022-09-09T02:47:36;15.80;99.90
51035;DHT22;37062;52.546;13.230;2022-09-09T02:50:13;15.80;99.90
51035;DHT22;37062;52.546;13.230;2022-09-09T02:52:50;15.80;99.90
51035;DHT22;37062;52.546;13.230;2022-09-09T02:55:24;15.80;99.90
51035;DHT22;37062;52.546;13.230;2022-09-09T02:57:58;15.80;99.90
51035;DHT22;37062;52.546;13.230;2022-09-09T03:00:29;15.70;99.90
51035;DHT22;37062;52.546;13.230;2022-09-09T03:03:01;15.70;99.90
51035;DHT22;37062;52.546;13.230;2022-09-09T03:05:28;15.70;99.90
51035;DHT22;37062;52.546;13.230;2022-09-09T03:07:56;15.70;99.90
51035;DHT22;37062;52.546;13.230;2022-09-09T03:10:25;15.70;99.90
51035;DHT22;37062;52.546;13.230;2022-09-09T03:12:55;15.70;99.90
51035;DHT22;37062;52.546;13.230;2022-09-09T03:15:22;15.60;99.90
51035;DHT22;37062;52.546;13.230;2022-09-09T03:17:52;15.60;99.90
51035;DHT22;37062;52.546;13.230;2022-09-09T03:20:21;15.50;99.90
51035;DHT22;37062;52.546;13.230;2022-09-09T03:22:49;15.50;99.90
51035;DHT22;37062;52.546;13.230;2022-09-09T03:25:17;15.50;99.90
51035;DHT22;37062;52.546;13.230;2022-09-09T03:27:44;15.50;99.90
51035;DHT22;37062;52.546;13.230;2022-09-09T03:30:12;15.50;99.90
51035;DHT22;37062;52.546;13.230;2022-09-09T03:32:40;15.50;99.90
51035;DHT22;37062;52.546;13.230;2022-09-09T03:35:09;15.50;99.90
51035;DHT22;37062;52.546;13.230;2022-09-09T03:37:37;15.50;99.90
51035;DHT22;37062;52.546;13.230;2022-09-09T03:40:05;15.60;99.90
51035;DHT22;37062;52.546;13.230;2022-09-09T03:42:34;15.60;99.90
51035;DHT22;37062;52.546;13.230;2022-09-09T03:45:03;15.60;99.90
51035;DHT22;37062;52.546;13.230;2022-09-09T03:47:31;15.60;99.90
51035;DHT22;37062;52.546;13.230;2022-09-09T03:50:05;15.50;99.90
51035;DHT22;37062;52.546;13.230;2022-09-09T03:52:37;15.50;99.90
51035;DHT22;37062;52.546;13.230;2022-09-09T03:55:07;15.50;99.90
51035;DHT22;37062;52.546;13.230;2022-09-09T03:57:36;15.50;99.90
51035;DHT22;37062;52.546;13.230;2022-09-09T04:00:08;15.50;99.90
51035;DHT22;37062;52.546;13.230;2022-09-09T04:02:44;15.40;99.90
51035;DHT22;37062;52.546;13.230;2022-09-09T04:05:15;15.40;99.90
51035;DHT22;37062;52.546;13.230;2022-09-09T04:07:46;15.40;99.90
51035;DHT22;37062;52.546;13.230;2022-09-09T04:10:13;15.40;99.90
51035;DHT22;37062;52.546;13.230;2022-09-09T04:12:43;15.40;99.90
51035;DHT22;37062;52.546;13.230;2022-09-09T04:15:10;15.40;99.90
51035;DHT22;37062;52.546;13.230;2022-09-09T04:17:39;15.40;99.90
51035;DHT22;37062;52.546;13.230;2022-09-09T04:20:07;15.40;99.90
51035;DHT22;37062;52.546;13.230;2022-09-09T04:22:38;15.40;99.90
51035;DHT22;37062;52.546;13.230;2022-09-09T04:25:08;15.40;99.90
51035;DHT22;37062;52.546;13.230;2022-09-09T04:27:36;15.40;99.90
51035;DHT22;37062;52.546;13.230;2022-09-09T04:30:04;15.40;99.90
51035;DHT22;37062;52.546;13.230;2022-09-09T04:32:33;15.40;99.90
51035;DHT22;37062;52.546;13.230;2022-09-09T04:35:02;15.40;99.90
51035;DHT22;37062;52.546;13.230;2022-09-09T04:37:30;15.40;99.90
51035;DHT22;37062;52.546;13.230;2022-09-09T04:39:59;15.50;99.90
51035;DHT22;37062;52.546;13.230;2022-09-09T04:42:34;15.40;99.90
51035;DHT22;37062;52.546;13.230;2022-09-09T04:45:02;15.50;99.90
51035;DHT22;37062;52.546;13.230;2022-09-09T04:47:31;15.50;99.90
51035;DHT22;37062;52.546;13.230;2022-09-09T04:49:59;15.60;99.90
51035;DHT22;37062;52.546;13.230;2022-09-09T04:52:26;15.60;99.90
51035;DHT22;37062;52.546;13.230;2022-09-09T04:54:54;15.70;99.90
51035;DHT22;37062;52.546;13.230;2022-09-09T04:57:21;15.70;99.90
51035;DHT22;37062;52.546;13.230;2022-09-09T04:59:50;15.80;99.90
51035;DHT22;37062;52.546;13.230;2022-09-09T05:02:18;15.80;99.90
51035;DHT22;37062;52.546;13.230;2022-09-09T05:04:45;15.90;99.90
51035;DHT22;37062;52.546;13.230;2022-09-09T05:07:13;16.10;99.90
51035;DHT22;37062;52.546;13.230;2022-09-09T05:09:41;16.30;99.90
51035;DHT22;37062;52.546;13.230;2022-09-09T05:12:09;16.40;99.90
51035;DHT22;37062;52.546;13.230;2022-09-09T05:14:42;16.60;99.90
51035;DHT22;37062;52.546;13.230;2022-09-09T05:17:12;16.70;99.90
51035;DHT22;37062;52.546;13.230;2022-09-09T05:19:39;16.70;99.90
51035;DHT22;37062;52.546;13.230;2022-09-09T05:22:06;16.90;99.90
51035;DHT22;37062;52.546;13.230;2022-09-09T05:24:41;17.10;99.90
51035;DHT22;37062;52.546;13.230;2022-09-09T05:27:10;17.30;99.90
51035;DHT22;37062;52.546;13.230;2022-09-09T05:29:39;17.30;99.90
51035;DHT22;37062;52.546;13.230;2022-09-09T05:32:09;17.30;99.90
51035;DHT22;37062;52.546;13.230;2022-09-09T05:34:38;17.40;99.90
51035;DHT22;37062;52.546;13.230;2022-09-09T05:37:06;17.50;99.90
51035;DHT22;37062;52.546;13.230;2022-09-09T05:39:34;17.60;99.90
51035;DHT22;37062;52.546;13.230;2022-09-09T05:42:04;17.90;99.90
51035;DHT22;37062;52.546;13.230;2022-09-09T05:44:33;18.30;99.90
51035;DHT22;37062;52.546;13.230;2022-09-09T05:47:01;18.50;99.90
51035;DHT22;37062;52.546;13.230;2022-09-09T05:49:28;18.40;99.90
51035;DHT22;37062;52.546;13.230;2022-09-09T05:51:57;18.30;99.90
51035;DHT22;37062;52.546;13.230;2022-09-09T05:54:24;18.00;99.90
51035;DHT22;37062;52.546;13.230;2022-09-09T05:56:54;18.00;99.90
51035;DHT22;37062;52.546;13.230;2022-09-09T05:59:22;18.00;99.90
51035;DHT22;37062;52.546;13.230;2022-09-09T06:01:52;17.90;99.90
51035;DHT22;37062;52.546;13.230;2022-09-09T06:04:25;17.80;99.90
51035;DHT22;37062;52.546;13.230;2022-09-09T06:06:53;17.70;99.90
51035;DHT22;37062;52.546;13.230;2022-09-09T06:09:24;17.80;99.90
51035;DHT22;37062;52.546;13.230;2022-09-09T06:11:51;18.00;99.90
51035;DHT22;37062;52.546;13.230;2022-09-09T06:14:22;18.30;99.90
51035;DHT22;37062;52.546;13.230;2022-09-09T06:16:52;18.80;99.90
51035;DHT22;37062;52.546;13.230;2022-09-09T06:19:26;19.20;99.90
51035;DHT22;37062;52.546;13.230;2022-09-09T06:21:56;19.40;99.90
51035;DHT22;37062;52.546;13.230;2022-09-09T06:24:26;19.70;99.90
51035;DHT22;37062;52.546;13.230;2022-09-09T06:26:54;19.70;99.90
51035;DHT22;37062;52.546;13.230;2022-09-09T06:29:26;19.90;99.90
51035;DHT22;37062;52.546;13.230;2022-09-09T06:31:54;20.20;99.90
51035;DHT22;37062;52.546;13.230;2022-09-09T06:34:23;20.60;99.90
51035;DHT22;37062;52.546;13.230;2022-09-09T06:36:55;20.90;99.90
51035;DHT22;37062;52.546;13.230;2022-09-09T06:39:25;21.30;99.90
51035;DHT22;37062;52.546;13.230;2022-09-09T06:41:52;21.60;99.90
51035;DHT22;37062;52.546;13.230;2022-09-09T06:44:39;21.60;99.90
51035;DHT22;37062;52.546;13.230;2022-09-09T06:47:10;21.60;99.90
51035;DHT22;37062;52.546;13.230;2022-09-09T06:49:39;21.40;99.90
51035;DHT22;37062;52.546;13.230;2022-09-09T06:52:09;21.10;99.90
51035;DHT22;37062;52.546;13.230;2022-09-09T06:54:40;20.80;99.90
51035;DHT22;37062;52.546;13.230;2022-09-09T06:57:07;20.60;99.90
51035;DHT22;37062;52.546;13.230;2022-09-09T06:59:36;20.50;99.90
51035;DHT22;37062;52.546;13.230;2022-09-09T07:02:04;20.70;99.90
51035;DHT22;37062;52.546;13.230;2022-09-09T07:04:31;21.20;99.90
51035;DHT22;37062;52.546;13.230;2022-09-09T07:06:59;21.70;99.90
51035;DHT22;37062;52.546;13.230;2022-09-09T07:09:27;22.20;99.90
51035;DHT22;37062;52.546;13.230;2022-09-09T07:11:57;22.60;99.90
51035;DHT22;37062;52.546;13.230;2022-09-09T07:14:26;22.40;99.90
51035;DHT22;37062;52.546;13.230;2022-09-09T07:16:58;22.10;99.90
51035;DHT22;37062;52.546;13.230;2022-09-09T07:19:29;21.80;99.90
51035;DHT22;37062;52.546;13.230;2022-09-09T07:21:57;22.00;99.90
51035;DHT22;37062;52.546;13.230;2022-09-09T07:24:25;22.20;99.90
51035;DHT22;37062;52.546;13.230;2022-09-09T07:26:57;22.40;99.90
51035;DHT22;37062;52.546;13.230;2022-09-09T07:29:26;22.80;99.90
51035;DHT22;37062;52.546;13.230;2022-09-09T07:31:54;23.00;99.90
51035;DHT22;37062;52.546;13.230;2022-09-09T07:34:27;22.90;99.90
51035;DHT22;37062;52.546;13.230;2022-09-09T07:36:55;22.90;99.90
51035;DHT22;37062;52.546;13.230;2022-09-09T07:39:23;23.10;99.90
51035;DHT22;37062;52.546;13.230;2022-09-09T07:41:53;23.40;99.90
51035;DHT22;37062;52.546;13.230;2022-09-09T07:44:24;23.40;99.90
51035;DHT22;37062;52.546;13.230;2022-09-09T07:47:06;23.50;99.90
51035;DHT22;37062;52.546;13.230;2022-09-09T07:49:42;23.50;99.90
51035;DHT22;37062;52.546;13.230;2022-09-09T07:52:09;23.70;99.90
51035;DHT22;37062;52.546;13.230;2022-09-09T07:54:41;23.80;99.90
51035;DHT22;37062;52.546;13.230;2022-09-09T07:57:10;24.00;99.90
51035;DHT22;37062;52.546;13.230;2022-09-09T07:59:40;24.20;99.90
51035;DHT22;37062;52.546;13.230;2022-09-09T08:02:09;24.50;99.90
51035;DHT22;37062;52.546;13.230;2022-09-09T08:04:38;25.20;99.90
51035;DHT22;37062;52.546;13.230;2022-09-09T08:07:05;25.80;99.90
51035;DHT22;37062;52.546;13.230;2022-09-09T08:09:40;26.50;99.90
51035;DHT22;37062;52.546;13.230;2022-09-09T08:12:14;27.20;99.90
51035;DHT22;37062;52.546;13.230;2022-09-09T08:14:43;27.60;99.90
51035;DHT22;37062;52.546;13.230;2022-09-09T08:17:10;27.80;99.90
51035;DHT22;37062;52.546;13.230;2022-09-09T08:19:38;28.40;99.90
51035;DHT22;37062;52.546;13.230;2022-09-09T08:22:12;28.90;99.90
51035;DHT22;37062;52.546;13.230;2022-09-09T08:24:40;29.30;99.90
51035;DHT22;37062;52.546;13.230;2022-09-09T08:27:08;29.80;99.90
51035;DHT22;37062;52.546;13.230;2022-09-09T08:29:37;30.20;99.90
51035;DHT22;37062;52.546;13.230;2022-09-09T08:32:07;30.30;99.90
51035;DHT22;37062;52.546;13.230;2022-09-09T08:34:36;30.70;99.90
51035;DHT22;37062;52.546;13.230;2022-09-09T08:37:08;31.10;99.90
51035;DHT22;37062;52.546;13.230;2022-09-09T08:39:39;31.70;99.90
51035;DHT22;37062;52.546;13.230;2022-09-09T08:42:17;31.90;99.90
51035;DHT22;37062;52.546;13.230;2022-09-09T08:45:00;31.20;99.90
51035;DHT22;37062;52.546;13.230;2022-09-09T08:47:41;30.30;99.90
51035;DHT22;37062;52.546;13.230;2022-09-09T08:50:19;29.50;99.90
51035;DHT22;37062;52.546;13.230;2022-09-09T08:52:56;28.70;99.90
51035;DHT22;37062;52.546;13.230;2022-09-09T08:55:37;27.80;99.90
51035;DHT22;37062;52.546;13.230;2022-09-09T08:58:12;27.20;99.90
51035;DHT22;37062;52.546;13.230;2022-09-09T09:00:48;26.60;99.90
51035;DHT22;37062;52.546;13.230;2022-09-09T09:03:25;26.10;99.90
51035;DHT22;37062;52.546;13.230;2022-09-09T09:06:04;25.80;99.90
51035;DHT22;37062;52.546;13.230;2022-09-09T09:08:38;25.30;99.90
51035;DHT22;37062;52.546;13.230;2022-09-09T09:11:08;25.10;99.90
51035;DHT22;37062;52.546;13.230;2022-09-09T09:13:40;24.90;99.90
51035;DHT22;37062;52.546;13.230;2022-09-09T09:16:19;24.80;99.90
51035;DHT22;37062;52.546;13.230;2022-09-09T09:18:53;24.80;99.90
51035;DHT22;37062;52.546;13.230;2022-09-09T09:21:31;24.70;99.90
51035;DHT22;37062;52.546;13.230;2022-09-09T09:24:01;24.70;99.90
51035;DHT22;37062;52.546;13.230;2022-09-09T09:26:34;24.90;99.90
51035;DHT22;37062;52.546;13.230;2022-09-09T09:29:10;25.40;99.90
51035;DHT22;37062;52.546;13.230;2022-09-09T09:31:42;26.40;99.90
51035;DHT22;37062;52.546;13.230;2022-09-09T09:34:12;27.40;99.90
51035;DHT22;37062;52.546;13.230;2022-09-09T09:36:43;28.60;99.90
51035;DHT22;37062;52.546;13.230;2022-09-09T09:39:23;29.30;99.90
51035;DHT22;37062;52.546;13.230;2022-09-09T09:41:52;29.70;99.90
51035;DHT22;37062;52.546;13.230;2022-09-09T09:44:26;29.80;99.90
51035;DHT22;37062;52.546;13.230;2022-09-09T09:47:06;29.80;99.90
51035;DHT22;37062;52.546;13.230;2022-09-09T09:49:35;29.90;99.90
51035;DHT22;37062;52.546;13.230;2022-09-09T09:52:03;29.70;99.90
51035;DHT22;37062;52.546;13.230;2022-09-09T09:54:34;29.60;99.90
51035;DHT22;37062;52.546;13.230;2022-09-09T09:57:09;29.60;99.90
51035;DHT22;37062;52.546;13.230;2022-09-09T09:59:39;29.80;99.90
51035;DHT22;37062;52.546;13.230;2022-09-09T10:02:25;30.10;99.90
51035;DHT22;37062;52.546;13.230;2022-09-09T10:05:05;29.90;99.90
51035;DHT22;37062;52.546;13.230;2022-09-09T10:07:35;29.60;99.90
51035;DHT22;37062;52.546;13.230;2022-09-09T10:10:04;29.30;99.90
51035;DHT22;37062;52.546;13.230;2022-09-09T10:12:43;28.90;99.90
51035;DHT22;37062;52.546;13.230;2022-09-09T10:15:36;28.20;99.90
51035;DHT22;37062;52.546;13.230;2022-09-09T10:18:21;27.70;99.90
51035;DHT22;37062;52.546;13.230;2022-09-09T10:21:00;27.40;99.90
51035;DHT22;37062;52.546;13.230;2022-09-09T10:23:46;27.20;99.90
51035;DHT22;37062;52.546;13.230;2022-09-09T10:26:32;27.00;99.90
51035;DHT22;37062;52.546;13.230;2022-09-09T10:29:21;26.60;99.90
51035;DHT22;37062;52.546;13.230;2022-09-09T10:31:58;26.30;99.90
51035;DHT22;37062;52.546;13.230;2022-09-09T10:34:48;26.20;99.90
51035;DHT22;37062;52.546;13.230;2022-09-09T10:37:27;26.20;99.90
51035;DHT22;37062;52.546;13.230;2022-09-09T10:40:04;26.00;99.90
51035;DHT22;37062;52.546;13.230;2022-09-09T10:42:34;25.90;99.90
51035;DHT22;37062;52.546;13.230;2022-09-09T10:45:14;25.90;99.90
51035;DHT22;37062;52.546;13.230;2022-09-09T10:47:56;25.80;99.90
51035;DHT22;37062;52.546;13.230;2022-09-09T10:50:45;25.60;99.90
51035;DHT22;37062;52.546;13.230;2022-09-09T10:53:25;25.50;99.90
51035;DHT22;37062;52.546;13.230;2022-09-09T10:56:00;25.50;99.90
51035;DHT22;37062;52.546;13.230;2022-09-09T10:58:42;25.40;99.90
51035;DHT22;37062;52.546;13.230;2022-09-09T11:01:17;25.30;99.90
51035;DHT22;37062;52.546;13.230;2022-09-09T11:03:51;25.30;99.90
51035;DHT22;37062;52.546;13.230;2022-09-09T11:06:27;25.30;99.90
51035;DHT22;37062;52.546;13.230;2022-09-09T11:09:01;25.30;99.90
51035;DHT22;37062;52.546;13.230;2022-09-09T11:11:33;25.30;99.90
51035;DHT22;37062;52.546;13.230;2022-09-09T11:14:05;25.20;99.90
51035;DHT22;37062;52.546;13.230;2022-09-09T11:16:41;25.30;99.90
51035;DHT22;37062;52.546;13.230;2022-09-09T11:19:15;25.30;99.90
51035;DHT22;37062;52.546;13.230;2022-09-09T11:21:46;25.30;99.90
51035;DHT22;37062;52.546;13.230;2022-09-09T11:24:21;25.50;99.90
51035;DHT22;37062;52.546;13.230;2022-09-09T11:26:53;25.50;99.90
51035;DHT22;37062;52.546;13.230;2022-09-09T11:29:52;25.50;99.90
51035;DHT22;37062;52.546;13.230;2022-09-09T11:35:29;25.50;99.90
51035;DHT22;37062;52.546;13.230;2022-09-09T11:38:15;25.70;99.90
51035;DHT22;37062;52.546;13.230;2022-09-09T11:40:45;25.90;99.90
51035;DHT22;37062;52.546;13.230;2022-09-09T11:43:23;26.00;99.90
51035;DHT22;37062;52.546;13.230;2022-09-09T11:45:52;26.00;99.90
51035;DHT22;37062;52.546;13.230;2022-09-09T11:48:32;25.90;99.90
51035;DHT22;37062;52.546;13.230;2022-09-09T11:51:06;25.60;99.90
51035;DHT22;37062;52.546;13.230;2022-09-09T11:53:35;25.60;99.90
51035;DHT22;37062;52.546;13.230;2022-09-09T11:56:09;25.50;99.90
51035;DHT22;37062;52.546;13.230;2022-09-09T11:58:43;25.30;99.90
51035;DHT22;37062;52.546;13.230;2022-09-09T12:01:44;25.20;99.90
51035;DHT22;37062;52.546;13.230;2022-09-09T12:04:16;25.40;99.90
51035;DHT22;37062;52.546;13.230;2022-09-09T12:06:46;25.40;99.90
51035;DHT22;37062;52.546;13.230;2022-09-09T12:09:20;25.50;99.90
51035;DHT22;37062;52.546;13.230;2022-09-09T12:11:51;25.60;99.90
51035;DHT22;37062;52.546;13.230;2022-09-09T12:14:23;25.70;99.90
51035;DHT22;37062;52.546;13.230;2022-09-09T12:17:10;25.90;99.90
51035;DHT22;37062;52.546;13.230;2022-09-09T12:19:44;26.10;99.90
51035;DHT22;37062;52.546;13.230;2022-09-09T12:22:18;26.20;99.90
51035;DHT22;37062;52.546;13.230;2022-09-09T12:24:53;26.20;99.90
51035;DHT22;37062;52.546;13.230;2022-09-09T12:27:30;26.10;99.90
51035;DHT22;37062;52.546;13.230;2022-09-09T12:30:03;26.00;99.90
51035;DHT22;37062;52.546;13.230;2022-09-09T12:32:31;25.90;99.90
51035;DHT22;37062;52.546;13.230;2022-09-09T12:35:00;25.80;99.90
51035;DHT22;37062;52.546;13.230;2022-09-09T12:37:34;25.80;99.90
51035;DHT22;37062;52.546;13.230;2022-09-09T12:40:04;25.90;99.90
51035;DHT22;37062;52.546;13.230;2022-09-09T12:42:39;26.00;99.90
51035;DHT22;37062;52.546;13.230;2022-09-09T12:45:16;26.00;99.90
51035;DHT22;37062;52.546;13.230;2022-09-09T12:47:46;26.10;99.90
51035;DHT22;37062;52.546;13.230;2022-09-09T12:50:17;26.10;99.90
51035;DHT22;37062;52.546;13.230;2022-09-09T12:52:47;26.20;99.90
51035;DHT22;37062;52.546;13.230;2022-09-09T12:55:18;26.30;99.90
51035;DHT22;37062;52.546;13.230;2022-09-09T12:57:49;26.10;99.90
51035;DHT22;37062;52.546;13.230;2022-09-09T13:00:22;26.00;99.90
51035;DHT22;37062;52.546;13.230;2022-09-09T13:02:51;26.00;99.90
51035;DHT22;37062;52.546;13.230;2022-09-09T13:05:22;25.80;99.90
51035;DHT22;37062;52.546;13.230;2022-09-09T13:07:50;25.70;99.90
51035;DHT22;37062;52.546;13.230;2022-09-09T13:10:23;25.70;99.90
51035;DHT22;37062;52.546;13.230;2022-09-09T13:12:54;25.70;99.90
51035;DHT22;37062;52.546;13.230;2022-09-09T13:15:24;25.70;99.90
51035;DHT22;37062;52.546;13.230;2022-09-09T13:17:54;25.60;99.90
51035;DHT22;37062;52.546;13.230;2022-09-09T13:20:22;25.60;99.90
51035;DHT22;37062;52.546;13.230;2022-09-09T13:22:52;25.60;99.90
51035;DHT22;37062;52.546;13.230;2022-09-09T13:25:23;25.50;99.90
51035;DHT22;37062;52.546;13.230;2022-09-09T13:27:58;25.50;99.90
51035;DHT22;37062;52.546;13.230;2022-09-09T13:30:29;25.50;99.90
51035;DHT22;37062;52.546;13.230;2022-09-09T13:33:17;25.40;99.90
51035;DHT22;37062;52.546;13.230;2022-09-09T13:35:47;25.40;99.90
51035;DHT22;37062;52.546;13.230;2022-09-09T13:38:16;25.30;99.90
51035;DHT22;37062;52.546;13.230;2022-09-09T13:40:53;25.30;99.90
51035;DHT22;37062;52.546;13.230;2022-09-09T13:43:25;25.20;99.90
51035;DHT22;37062;52.546;13.230;2022-09-09T13:45:58;25.20;99.90
51035;DHT22;37062;52.546;13.230;2022-09-09T13:48:26;25.20;99.90
51035;DHT22;37062;52.546;13.230;2022-09-09T13:50:55;25.20;99.90
51035;DHT22;37062;52.546;13.230;2022-09-09T13:53:23;25.30;99.90
51035;DHT22;37062;52.546;13.230;2022-09-09T13:55:50;25.40;99.90
51035;DHT22;37062;52.546;13.230;2022-09-09T13:58:19;25.50;99.90
51035;DHT22;37062;52.546;13.230;2022-09-09T14:00:49;25.60;99.90
51035;DHT22;37062;52.546;13.230;2022-09-09T14:03:16;25.70;99.90
51035;DHT22;37062;52.546;13.230;2022-09-09T14:05:44;25.60;99.90
51035;DHT22;37062;52.546;13.230;2022-09-09T14:08:25;25.60;99.90
51035;DHT22;37062;52.546;13.230;2022-09-09T14:10:54;25.50;99.90
51035;DHT22;37062;52.546;13.230;2022-09-09T14:13:24;25.50;99.90
51035;DHT22;37062;52.546;13.230;2022-09-09T14:15:53;25.30;99.90
51035;DHT22;37062;52.546;13.230;2022-09-09T14:18:20;25.20;99.90
51035;DHT22;37062;52.546;13.230;2022-09-09T14:20:49;25.10;99.90
51035;DHT22;37062;52.546;13.230;2022-09-09T14:23:17;25.10;99.90
51035;DHT22;37062;52.546;13.230;2022-09-09T14:25:44;25.10;99.90
51035;DHT22;37062;52.546;13.230;2022-09-09T14:28:13;25.20;99.90
51035;DHT22;37062;52.546;13.230;2022-09-09T14:30:42;25.10;99.90
51035;DHT22;37062;52.546;13.230;2022-09-09T14:33:14;25.20;99.90
51035;DHT22;37062;52.546;13.230;2022-09-09T14:35:42;25.40;99.90
51035;DHT22;37062;52.546;13.230;2022-09-09T14:38:10;25.50;99.90
51035;DHT22;37062;52.546;13.230;2022-09-09T14:40:38;25.60;99.90
51035;DHT22;37062;52.546;13.230;2022-09-09T14:43:05;25.70;99.90
51035;DHT22;37062;52.546;13.230;2022-09-09T14:45:35;25.70;99.90
51035;DHT22;37062;52.546;13.230;2022-09-09T14:48:03;25.70;99.90
51035;DHT22;37062;52.546;13.230;2022-09-09T14:50:32;25.60;99.90
51035;DHT22;37062;52.546;13.230;2022-09-09T14:53:01;25.50;99.90
51035;DHT22;37062;52.546;13.230;2022-09-09T14:55:28;25.40;99.90
51035;DHT22;37062;52.546;13.230;2022-09-09T14:57:55;25.30;99.90
51035;DHT22;37062;52.546;13.230;2022-09-09T15:00:23;25.30;99.90
51035;DHT22;37062;52.546;13.230;2022-09-09T15:02:52;25.30;99.90
51035;DHT22;37062;52.546;13.230;2022-09-09T15:05:20;25.20;99.90
51035;DHT22;37062;52.546;13.230;2022-09-09T15:07:49;25.20;99.90
51035;DHT22;37062;52.546;13.230;2022-09-09T15:10:17;25.20;99.90
51035;DHT22;37062;52.546;13.230;2022-09-09T15:12:44;25.10;99.90
51035;DHT22;37062;52.546;13.230;2022-09-09T15:15:11;25.20;99.90
51035;DHT22;37062;52.546;13.230;2022-09-09T15:17:39;25.20;99.90
51035;DHT22;37062;52.546;13.230;2022-09-09T15:20:08;25.20;99.90
51035;DHT22;37062;52.546;13.230;2022-09-09T15:22:35;25.10;99.90
51035;DHT22;37062;52.546;13.230;2022-09-09T15:25:06;25.20;99.90
51035;DHT22;37062;52.546;13.230;2022-09-09T15:27:34;25.10;99.90
51035;DHT22;37062;52.546;13.230;2022-09-09T15:30:01;25.10;99.90
51035;DHT22;37062;52.546;13.230;2022-09-09T15:32:29;25.00;99.90
51035;DHT22;37062;52.546;13.230;2022-09-09T15:34:56;24.90;99.90
51035;DHT22;37062;52.546;13.230;2022-09-09T15:37:27;24.80;99.90
51035;DHT22;37062;52.546;13.230;2022-09-09T15:39:54;24.70;99.90
51035;DHT22;37062;52.546;13.230;2022-09-09T15:42:26;24.60;99.90
51035;DHT22;37062;52.546;13.230;2022-09-09T15:44:53;24.50;99.90
51035;DHT22;37062;52.546;13.230;2022-09-09T15:47:21;24.30;99.90
51035;DHT22;37062;52.546;13.230;2022-09-09T15:49:48;24.30;99.90
51035;DHT22;37062;52.546;13.230;2022-09-09T15:52:16;24.30;99.90